Time;durP1;ratioP1;P1;durP2;ratioP2;P2;SDS_P1;SDS_P2;PMS_P1;PMS_P2;Temp;Humidity;BMP_temperature;BMP_pressure;BME280_temperature;BME280_humidity;BME280_pressure;Samples;Min_cycle;Max_cycle;Signal;HPM_P1;HPM_P2
2021/04/09 00:01:56;;;;;;;12.38;4.47;;;22.90;45.60;;;;;;5094346;28;20028;-50
2021/04/09 00:04:23;;;;;;;12.40;4.22;;;22.90;45.60;;;;;;5059555;28;20032;-50
2021/04/09 00:06:49;;;;;;;14.60;3.95;;;22.90;45.60;;;;;;5094504;28;20042;-50
2021/04/09 00:09:16;;;;;;;11.65;4.13;;;22.90;45.70;;;;;;5094122;28;20032;-50
2021/04/09 00:11:45;;;;;;;10.38;3.75;;;22.90;45.70;;;;;;5076643;28;20028;-50
2021/04/09 00:14:13;;;;;;;11.68;4.18;;;22.90;45.70;;;;;;5076383;28;20366;-50
2021/04/09 00:16:40;;;;;;;12.93;3.58;;;22.90;45.80;;;;;;5093718;28;20099;-51
2021/04/09 00:19:08;;;;;;;15.70;4.72;;;22.90;45.80;;;;;;5092972;28;20416;-50
2021/04/09 00:21:34;;;;;;;11.00;3.97;;;22.90;45.80;;;;;;5093914;28;20020;-50
2021/04/09 00:24:00;;;;;;;15.77;4.45;;;22.90;45.90;;;;;;5094237;28;20073;-50
2021/04/09 00:26:29;;;;;;;13.23;4.00;;;22.90;45.90;;;;;;5094074;28;20478;-50
2021/04/09 00:28:56;;;;;;;15.30;4.82;;;22.90;46.00;;;;;;5093871;28;20028;-50
2021/04/09 00:31:22;;;;;;;9.15;3.38;;;22.90;46.00;;;;;;5094351;28;20489;-50
2021/04/09 00:33:48;;;;;;;11.75;3.88;;;22.80;46.00;;;;;;5075614;28;20035;-50
2021/04/09 00:36:14;;;;;;;15.60;4.53;;;22.80;46.10;;;;;;5093829;28;20024;-50
2021/04/09 00:38:40;;;;;;;15.25;4.35;;;22.90;46.20;;;;;;5094272;28;20027;-50
2021/04/09 00:41:06;;;;;;;10.10;3.95;;;22.80;46.10;;;;;;5075309;28;20035;-50
2021/04/09 00:43:33;;;;;;;13.38;4.50;;;22.80;46.10;;;;;;5093844;28;20039;-51
2021/04/09 00:45:59;;;;;;;13.07;3.95;;;22.80;46.20;;;;;;5093412;28;20488;-50
2021/04/09 00:48:25;;;;;;;12.25;4.38;;;22.80;46.10;;;;;;5092891;28;20335;-50
2021/04/09 00:50:51;;;;;;;11.73;3.28;;;22.80;46.10;;;;;;5075002;28;20024;-50
2021/04/09 00:53:18;;;;;;;12.60;4.63;;;22.80;46.10;;;;;;5074554;28;20394;-50
2021/04/09 00:55:44;;;;;;;13.40;3.92;;;22.80;46.10;;;;;;5092740;28;20024;-51
2021/04/09 00:58:11;;;;;;;13.70;4.00;;;22.80;46.20;;;;;;5093527;28;20533;-50
2021/04/09 01:00:37;;;;;;;15.40;4.63;;;22.80;46.20;;;;;;5092750;28;20023;-50
2021/04/09 01:03:04;;;;;;;13.20;3.97;;;22.80;46.20;;;;;;5092762;28;20015;-50
2021/04/09 01:05:32;;;;;;;16.60;5.22;;;22.80;46.30;;;;;;5075166;28;20039;-50
2021/04/09 01:08:03;;;;;;;14.00;3.75;;;22.80;46.40;;;;;;5092848;28;20444;-50
2021/04/09 01:10:29;;;;;;;10.82;3.92;;;22.80;46.30;;;;;;5093075;28;20035;-50
2021/04/09 01:12:55;;;;;;;12.23;4.25;;;22.80;46.40;;;;;;5075209;28;20039;-50
2021/04/09 01:15:22;;;;;;;12.20;4.00;;;22.80;46.40;;;;;;5093193;28;20028;-50
2021/04/09 01:18:10;;;;;;;11.40;4.55;;;22.80;46.40;;;;;;5092901;28;20477;-50
2021/04/09 01:20:56;;;;;;;11.13;3.78;;;22.70;46.40;;;;;;5093273;28;20036;-50
2021/04/09 01:23:37;;;;;;;13.68;3.90;;;22.70;46.40;;;;;;5092713;28;20077;-50
2021/04/09 01:26:22;;;;;;;16.05;3.65;;;22.80;46.40;;;;;;5074785;28;20028;-50
2021/04/09 01:29:25;;;;;;;16.30;4.63;;;22.80;46.50;;;;;;5072769;28;20044;-50
2021/04/09 01:32:10;;;;;;;14.40;3.58;;;22.80;46.50;;;;;;5077542;28;20103;-50
2021/04/09 01:34:48;;;;;;;13.05;4.20;;;22.80;46.50;;;;;;5092027;28;20024;-50
2021/04/09 01:37:38;;;;;;;14.63;4.80;;;22.80;46.60;;;;;;5092492;28;20496;-50
2021/04/09 01:40:12;;;;;;;15.52;4.07;;;22.80;46.60;;;;;;5092194;28;20039;-50
2021/04/09 01:42:40;;;;;;;13.48;4.57;;;22.80;46.60;;;;;;5091380;28;20024;-50
2021/04/09 01:45:11;;;;;;;16.00;4.63;;;22.80;46.60;;;;;;5091707;28;20035;-50
2021/04/09 01:47:38;;;;;;;;;;;22.80;46.70;;;;;;5091536;28;20174;-50
2021/04/09 01:50:09;;;;;;;16.23;4.20;;;22.80;46.60;;;;;;5091911;28;19990;-50
2021/04/09 01:52:35;;;;;;;12.77;3.67;;;22.80;46.50;;;;;;5090967;28;20381;-50
2021/04/09 01:55:06;;;;;;;15.10;3.90;;;22.80;46.50;;;;;;5073761;28;20533;-50
2021/04/09 01:57:34;;;;;;;10.63;3.78;;;22.80;46.60;;;;;;5073752;28;20382;-50
2021/04/09 02:00:03;;;;;;;15.98;4.28;;;22.80;46.70;;;;;;5075388;28;20035;-50
2021/04/09 02:02:41;;;;;;;11.40;3.47;;;22.80;46.80;;;;;;5096056;28;20040;-50
2021/04/09 02:05:08;;;;;;;10.77;3.38;;;22.80;46.80;;;;;;5094079;28;20044;-50
2021/04/09 02:07:35;;;;;;;14.43;4.75;;;22.80;46.80;;;;;;5077455;28;20028;-50
2021/04/09 02:10:04;;;;;;;7.82;2.88;;;22.80;46.90;;;;;;5096795;28;20517;-50
2021/04/09 02:12:31;;;;;;;11.57;3.78;;;22.80;47.00;;;;;;5096418;28;20085;-50
2021/04/09 02:14:57;;;;;;;12.23;3.60;;;22.80;47.00;;;;;;5096613;28;20099;-50
2021/04/09 02:17:24;;;;;;;14.85;3.78;;;22.80;47.00;;;;;;5096600;28;20111;-50
2021/04/09 02:19:50;;;;;;;19.33;4.43;;;22.70;47.00;;;;;;5078613;28;20528;-50
2021/04/09 02:22:18;;;;;;;12.23;3.85;;;22.80;47.00;;;;;;5096367;28;20048;-50
2021/04/09 02:24:48;;;;;;;15.40;4.18;;;22.80;47.10;;;;;;5096399;28;20470;-50
2021/04/09 02:27:14;;;;;;;10.68;3.38;;;22.70;47.00;;;;;;5077893;28;20524;-50
2021/04/09 02:29:43;;;;;;;12.45;3.55;;;22.80;47.10;;;;;;5096386;28;20035;-50
2021/04/09 02:32:10;;;;;;;9.90;3.65;;;22.80;47.10;;;;;;5096182;28;20028;-50
2021/04/09 02:34:37;;;;;;;11.95;3.30;;;22.80;47.10;;;;;;5096130;28;20473;-50
2021/04/09 02:37:04;;;;;;;13.38;3.58;;;22.80;47.10;;;;;;5095961;28;20482;-50
2021/04/09 02:39:33;;;;;;;13.38;4.20;;;22.80;47.10;;;;;;5096125;28;20486;-50
2021/04/09 02:42:05;;;;;;;13.52;4.28;;;22.80;47.20;;;;;;5095750;28;20024;-50
2021/04/09 02:44:31;;;;;;;14.85;4.32;;;22.80;47.20;;;;;;5096062;28;20028;-50
2021/04/09 02:47:10;;;;;;;11.50;4.22;;;22.80;47.10;;;;;;5077932;28;20035;-50
2021/04/09 02:49:46;;;;;;;10.80;3.83;;;22.80;47.20;;;;;;5095808;28;20103;-50
2021/04/09 02:52:23;;;;;;;9.98;3.28;;;22.80;47.10;;;;;;5077131;28;20059;-50
2021/04/09 02:54:54;;;;;;;10.70;3.13;;;22.80;47.10;;;;;;5095741;28;20031;-50
2021/04/09 02:57:23;;;;;;;11.52;3.60;;;22.80;47.10;;;;;;5095661;28;20478;-50
2021/04/09 02:59:53;;;;;;;13.07;3.90;;;22.80;47.10;;;;;;5094934;28;20103;-50
2021/04/09 03:02:20;;;;;;;;;;;22.80;47.10;;;;;;5077794;28;20034;-50
2021/04/09 03:04:47;;;;;;;10.50;3.42;;;22.80;47.00;;;;;;5095959;28;19908;-50
2021/04/09 03:07:16;;;;;;;9.10;3.45;;;22.90;46.90;;;;;;5096024;28;20040;-50
2021/04/09 03:09:42;;;;;;;11.82;4.63;;;22.90;47.00;;;;;;5095694;28;20028;-50
2021/04/09 03:12:16;;;;;;;12.07;3.88;;;22.80;47.00;;;;;;5094733;28;20092;-49
2021/04/09 03:14:43;;;;;;;13.18;3.67;;;22.80;47.10;;;;;;5095621;28;20031;-50
2021/04/09 03:17:31;;;;;;;11.23;3.70;;;22.80;47.10;;;;;;5095325;28;20020;-50
2021/04/09 03:19:57;;;;;;;12.20;4.15;;;22.80;47.10;;;;;;5077282;28;20036;-50
2021/04/09 03:22:23;;;;;;;13.73;3.97;;;22.80;47.10;;;;;;5095334;28;20389;-50
2021/04/09 03:24:49;;;;;;;10.85;2.90;;;22.80;47.10;;;;;;5095598;28;20106;-50
2021/04/09 03:27:15;;;;;;;8.80;3.20;;;22.80;47.10;;;;;;5095265;28;20044;-50
2021/04/09 03:29:42;;;;;;;14.82;3.83;;;22.80;47.20;;;;;;5095427;28;20036;-50
2021/04/09 03:32:15;;;;;;;11.90;4.05;;;22.80;47.20;;;;;;5094934;28;20020;-50
2021/04/09 03:34:42;;;;;;;12.82;4.00;;;22.80;47.20;;;;;;5095072;28;20016;-50
2021/04/09 03:37:09;;;;;;;8.93;3.15;;;22.80;47.20;;;;;;5095324;28;20028;-50
2021/04/09 03:39:36;;;;;;;10.88;3.67;;;22.80;47.20;;;;;;5094940;28;20068;-50
2021/04/09 03:42:03;;;;;;;11.30;4.38;;;22.80;47.20;;;;;;5095175;28;20377;-50
2021/04/09 03:44:30;;;;;;;11.63;3.88;;;22.80;47.20;;;;;;5094881;28;20024;-50
2021/04/09 03:46:56;;;;;;;13.40;4.30;;;22.80;47.20;;;;;;5095085;28;20032;-50
2021/04/09 03:49:22;;;;;;;11.63;3.53;;;22.80;47.20;;;;;;5094801;28;20032;-50
2021/04/09 03:51:49;;;;;;;17.13;5.22;;;22.80;47.20;;;;;;5074878;28;20033;-50
2021/04/09 03:54:16;;;;;;;10.93;4.43;;;22.80;47.20;;;;;;5084892;28;20016;-50
2021/04/09 03:56:42;;;;;;;13.43;3.80;;;22.80;47.20;;;;;;5094717;28;20032;-50
2021/04/09 03:59:08;;;;;;;9.98;3.20;;;22.70;47.10;;;;;;5094649;28;20035;-50
2021/04/09 04:01:34;;;;;;;8.75;3.15;;;22.80;47.20;;;;;;5094641;28;20035;-50
2021/04/09 04:04:00;;;;;;;12.15;3.25;;;22.80;47.10;;;;;;5076408;28;20047;-50
2021/04/09 04:06:26;;;;;;;10.45;3.42;;;22.80;47.10;;;;;;5094582;28;20019;-50
2021/04/09 04:08:52;;;;;;;8.60;3.78;;;22.70;47.10;;;;;;5094211;28;20036;-50
2021/04/09 04:11:18;;;;;;;9.35;3.70;;;22.70;47.10;;;;;;5111779;28;20047;-50
2021/04/09 04:13:44;;;;;;;18.65;4.63;;;22.70;47.10;;;;;;5105089;28;20031;-50
2021/04/09 04:16:11;;;;;;;9.30;3.40;;;22.70;47.10;;;;;;5094680;28;20016;-50
2021/04/09 04:18:37;;;;;;;8.95;3.28;;;22.70;47.10;;;;;;5094293;28;20795;-50
2021/04/09 04:21:03;;;;;;;11.82;3.88;;;22.70;47.10;;;;;;5094322;28;20024;-50
2021/04/09 04:23:30;;;;;;;8.73;2.88;;;22.70;47.10;;;;;;5094127;28;20020;-50
2021/04/09 04:25:56;;;;;;;12.10;3.13;;;22.70;47.10;;;;;;5075990;28;20067;-50
2021/04/09 04:28:26;;;;;;;12.65;3.70;;;22.70;47.10;;;;;;5093521;28;20052;-50
2021/04/09 04:30:53;;;;;;;;;;;22.70;47.10;;;;;;5094729;28;20052;-50
2021/04/09 04:33:22;;;;;;;10.65;2.97;;;22.70;47.10;;;;;;5094119;28;20567;-49
2021/04/09 04:35:49;;;;;;;9.35;3.60;;;22.80;46.90;;;;;;5093887;28;20030;-50
2021/04/09 04:38:17;;;;;;;11.43;3.53;;;22.80;46.90;;;;;;5093219;28;20036;-50
2021/04/09 04:40:44;;;;;;;8.23;2.75;;;22.80;46.90;;;;;;5093720;28;20046;-50
2021/04/09 04:43:11;;;;;;;9.95;3.40;;;22.80;46.90;;;;;;5075432;28;20351;-50
2021/04/09 04:45:37;;;;;;;9.00;3.55;;;22.70;46.80;;;;;;5092968;28;20031;-50
2021/04/09 04:48:05;;;;;;;13.07;3.58;;;22.70;46.90;;;;;;5093759;28;20574;-49
2021/04/09 04:50:31;;;;;;;15.98;3.72;;;22.70;46.90;;;;;;5074832;28;20386;-50
2021/04/09 04:52:57;;;;;;;15.38;3.70;;;22.70;46.80;;;;;;5092885;28;20034;-50
2021/04/09 04:55:23;;;;;;;14.75;3.63;;;22.70;47.40;;;;;;5074895;28;20055;-50
2021/04/09 04:57:49;;;;;;;16.88;3.90;;;22.70;46.80;;;;;;5075292;28;20625;-50
2021/04/09 05:00:16;;;;;;;17.27;4.03;;;22.70;46.90;;;;;;5093287;28;20020;-50
2021/04/09 05:02:42;;;;;;;10.15;3.25;;;22.70;46.90;;;;;;5093101;28;20056;-50
2021/04/09 05:05:09;;;;;;;12.32;3.63;;;22.70;46.90;;;;;;5093023;28;20047;-49
2021/04/09 05:07:35;;;;;;;8.40;3.40;;;22.70;46.90;;;;;;5093001;28;20035;-49
2021/04/09 05:10:01;;;;;;;12.57;3.88;;;22.70;46.90;;;;;;5092892;28;20024;-50
2021/04/09 05:12:27;;;;;;;16.05;3.40;;;22.70;46.90;;;;;;5092885;28;20386;-50
2021/04/09 05:14:54;;;;;;;11.70;4.47;;;22.60;46.80;;;;;;5087994;28;20086;-50
2021/04/09 05:17:20;;;;;;;15.23;4.00;;;22.70;46.90;;;;;;5075381;28;20036;-50
2021/04/09 05:19:46;;;;;;;13.15;3.60;;;22.70;46.90;;;;;;5092476;28;20024;-50
2021/04/09 05:22:12;;;;;;;11.77;3.85;;;22.70;46.90;;;;;;5074730;28;20028;-50
2021/04/09 05:24:38;;;;;;;15.20;4.35;;;22.60;46.90;;;;;;5092884;28;20055;-50
2021/04/09 05:27:05;;;;;;;9.10;3.30;;;22.60;46.90;;;;;;5093016;28;20052;-50
2021/04/09 05:29:31;;;;;;;11.07;3.60;;;22.60;46.90;;;;;;5093140;28;20081;-50
2021/04/09 05:31:58;;;;;;;14.20;4.75;;;22.70;47.00;;;;;;5093024;28;20506;-50
2021/04/09 05:34:24;;;;;;;14.00;4.00;;;22.60;47.00;;;;;;5092548;28;20032;-49
2021/04/09 05:36:50;;;;;;;16.55;3.63;;;22.60;47.10;;;;;;5092723;28;20411;-50
2021/04/09 05:39:16;;;;;;;14.32;3.85;;;22.60;47.10;;;;;;5074834;28;20016;-49
2021/04/09 05:41:42;;;;;;;13.70;3.70;;;22.60;47.10;;;;;;5087115;28;20083;-49
2021/04/09 05:44:08;;;;;;;16.75;4.47;;;22.60;47.10;;;;;;5072543;28;20466;-50
2021/04/09 05:46:34;;;;;;;12.27;3.67;;;22.60;47.10;;;;;;5084247;28;20025;-50
2021/04/09 05:49:00;;;;;;;12.80;4.32;;;22.60;47.20;;;;;;5093214;28;20042;-50
2021/04/09 05:51:26;;;;;;;13.68;3.63;;;22.60;47.20;;;;;;5093412;28;20031;-51
2021/04/09 05:53:52;;;;;;;11.05;3.22;;;22.60;47.20;;;;;;5092424;28;20020;-50
2021/04/09 05:56:18;;;;;;;10.35;3.45;;;22.60;47.20;;;;;;5074905;28;20042;-50
2021/04/09 05:58:44;;;;;;;12.82;3.88;;;22.60;47.20;;;;;;5093113;28;20464;-51
2021/04/09 06:01:10;;;;;;;12.85;3.67;;;22.60;47.10;;;;;;5092963;28;20071;-51
2021/04/09 06:03:36;;;;;;;10.43;3.42;;;22.60;47.10;;;;;;5091830;28;20032;-50
2021/04/09 06:06:02;;;;;;;12.18;3.70;;;22.60;47.10;;;;;;5088013;28;20122;-50
2021/04/09 06:08:28;;;;;;;11.55;4.00;;;22.60;47.00;;;;;;5091043;28;20031;-50
2021/04/09 06:10:54;;;;;;;10.65;3.90;;;22.60;47.00;;;;;;5072269;28;20024;-50
2021/04/09 06:13:20;;;;;;;10.10;3.42;;;22.50;47.00;;;;;;5092061;28;20036;-50
2021/04/09 06:15:46;;;;;;;8.40;3.03;;;22.60;47.00;;;;;;5092348;28;20030;-50
2021/04/09 06:18:12;;;;;;;7.00;2.90;;;22.60;47.00;;;;;;5074142;28;20024;-50
2021/04/09 06:20:38;;;;;;;10.45;3.63;;;22.60;47.00;;;;;;5092099;28;20028;-49
2021/04/09 06:23:04;;;;;;;13.45;3.70;;;22.50;46.90;;;;;;5092234;28;20055;-50
2021/04/09 06:25:30;;;;;;;10.65;3.03;;;22.60;47.00;;;;;;5092102;28;20462;-50
2021/04/09 06:27:56;;;;;;;9.13;3.38;;;22.60;47.00;;;;;;5091837;28;20517;-49
2021/04/09 06:30:23;;;;;;;10.75;3.85;;;22.60;47.00;;;;;;5091890;28;20028;-49
2021/04/09 06:32:49;;;;;;;9.32;3.25;;;22.60;47.00;;;;;;5074013;28;20024;-49
2021/04/09 06:35:15;;;;;;;10.48;3.50;;;22.50;46.90;;;;;;5092141;28;20030;-49
2021/04/09 06:37:41;;;;;;;10.48;3.42;;;22.60;47.00;;;;;;5092246;28;20024;-49
2021/04/09 06:40:10;;;;;;;11.82;3.33;;;22.60;47.00;;;;;;5092129;28;20085;-49
2021/04/09 06:42:37;;;;;;;12.40;3.45;;;22.60;47.00;;;;;;5073903;28;20107;-49
2021/04/09 06:45:05;;;;;;;13.70;3.30;;;22.60;47.00;;;;;;5092021;28;20029;-49
2021/04/09 06:47:32;;;;;;;17.10;3.75;;;22.60;47.10;;;;;;5094278;28;20028;-49
2021/04/09 06:49:58;;;;;;;10.60;3.55;;;22.60;47.00;;;;;;5094837;28;20397;-49
2021/04/09 06:52:27;;;;;;;8.50;2.88;;;22.60;47.00;;;;;;5095343;28;20024;-50
2021/04/09 06:54:54;;;;;;;14.23;3.67;;;22.60;47.00;;;;;;5095527;28;20031;-50
2021/04/09 06:57:21;;;;;;;7.78;3.17;;;22.60;47.10;;;;;;5093991;28;20040;-50
2021/04/09 06:59:48;;;;;;;11.77;4.03;;;22.60;47.20;;;;;;5077587;28;20024;-50
2021/04/09 07:02:17;;;;;;;11.02;3.95;;;22.60;47.30;;;;;;5095523;28;20024;-49
2021/04/09 07:04:44;;;;;;;9.30;4.20;;;22.60;47.40;;;;;;5095451;28;20024;-49
2021/04/09 07:07:12;;;;;;;12.85;3.88;;;22.60;47.40;;;;;;5095486;28;20579;-48
2021/04/09 07:09:39;;;;;;;11.90;4.47;;;22.60;47.40;;;;;;5095422;28;20026;-49
2021/04/09 07:12:06;;;;;;;11.90;3.90;;;22.60;47.50;;;;;;5095593;28;20523;-49
2021/04/09 07:15:08;;;;;;;8.35;2.97;;;22.60;47.50;;;;;;5095621;28;20519;-49
2021/04/09 07:17:36;;;;;;;13.07;3.55;;;22.60;47.50;;;;;;5033698;28;20137;-49
2021/04/09 07:20:14;;;;;;;12.82;4.38;;;22.70;47.50;;;;;;5033197;28;20050;-49
2021/04/09 07:22:45;;;;;;;8.55;3.08;;;22.70;47.60;;;;;;5033095;28;20037;-49
2021/04/09 07:25:18;;;;;;;7.20;3.35;;;22.70;47.60;;;;;;5033300;28;20042;-49
2021/04/09 07:27:45;;;;;;;14.60;3.90;;;22.70;47.70;;;;;;5032778;28;20123;-48
2021/04/09 07:30:25;;;;;;;8.30;3.50;;;22.70;47.70;;;;;;5032153;28;20041;-48
2021/04/09 07:32:51;;;;;;;9.82;3.80;;;22.70;47.70;;;;;;5032832;28;20076;-49
2021/04/09 07:35:18;;;;;;;9.50;3.50;;;22.70;47.60;;;;;;5032984;28;20025;-49
2021/04/09 07:37:55;;;;;;;12.90;4.13;;;22.70;47.60;;;;;;5032620;28;20045;-48
2021/04/09 07:40:28;;;;;;;10.18;3.90;;;22.70;47.60;;;;;;5032986;28;20041;-49
2021/04/09 07:42:55;;;;;;;7.65;3.40;;;22.70;47.60;;;;;;5032699;28;20037;-48
2021/04/09 07:45:22;;;;;;;11.07;3.65;;;22.80;47.50;;;;;;5032676;28;20425;-48
2021/04/09 07:48:01;;;;;;;10.32;3.60;;;22.80;47.50;;;;;;5015760;28;20060;-49
2021/04/09 07:50:46;;;;;;;24.25;4.10;;;22.80;47.30;;;;;;5035906;28;20069;-49
2021/04/09 07:53:20;;;;;;;15.23;3.92;;;22.70;47.20;;;;;;5074492;28;20424;-49
2021/04/09 07:55:46;;;;;;;11.40;3.40;;;22.80;47.40;;;;;;5057106;28;20029;-49
2021/04/09 07:58:25;;;;;;;13.48;8.98;;;22.80;47.20;;;;;;5074121;28;20032;-49
2021/04/09 08:00:52;;;;;;;27.33;14.15;;;22.80;47.10;;;;;;5074708;28;20037;-49
2021/04/09 08:03:38;;;;;;;23.17;15.07;;;22.80;47.00;;;;;;5056334;28;20104;-50
2021/04/09 08:06:05;;;;;;;24.05;18.15;;;22.80;47.00;;;;;;5074295;28;20024;-49
2021/04/09 08:08:31;;;;;;;44.30;33.97;;;22.80;47.00;;;;;;5073967;28;20470;-50
2021/04/09 08:11:27;;;;;;;36.40;26.58;;;22.80;47.00;;;;;;5055776;28;20047;-50
2021/04/09 08:14:15;;;;;;;33.85;24.55;;;22.80;47.60;;;;;;5055162;28;20036;-49
2021/04/09 08:16:43;;;;;;;25.48;18.05;;;22.80;47.10;;;;;;5072634;28;20037;-52
2021/04/09 08:19:15;;;;;;;23.50;14.57;;;22.80;47.10;;;;;;5072918;28;20485;-52
2021/04/09 08:21:43;;;;;;;22.92;12.00;;;22.80;47.20;;;;;;5038371;28;20071;-53
2021/04/09 08:24:11;;;;;;;16.08;8.75;;;22.80;47.20;;;;;;5073576;28;20040;-52
2021/04/09 08:26:37;;;;;;;12.90;7.25;;;22.80;47.30;;;;;;5073912;28;20032;-53
2021/04/09 08:29:07;;;;;;;19.77;7.13;;;22.80;47.30;;;;;;5073002;28;20371;-52
2021/04/09 08:31:34;;;;;;;19.52;10.23;;;22.70;47.40;;;;;;5073414;28;20398;-52
2021/04/09 08:34:01;;;;;;;19.67;12.73;;;22.70;47.50;;;;;;5073231;28;20025;-52
2021/04/09 08:36:28;;;;;;;24.85;15.15;;;22.70;47.50;;;;;;5072617;28;20052;-52
2021/04/09 08:38:55;;;;;;;23.42;12.55;;;22.70;47.50;;;;;;5072717;28;20029;-52
2021/04/09 08:41:22;;;;;;;14.20;10.13;;;22.70;47.60;;;;;;5037898;28;20107;-52
2021/04/09 08:43:48;;;;;;;15.48;8.27;;;22.70;47.70;;;;;;5072018;28;20032;-52
2021/04/09 08:46:15;;;;;;;16.92;7.07;;;22.70;47.70;;;;;;5072006;28;20048;-52
2021/04/09 08:48:43;;;;;;;33.05;27.25;;;22.70;47.80;;;;;;5071961;28;20032;-52
2021/04/09 08:51:11;;;;;;;32.30;23.77;;;22.70;47.90;;;;;;5073046;28;20044;-52
2021/04/09 08:53:37;;;;;;;28.67;17.65;;;22.70;47.90;;;;;;5073072;28;20025;-52
2021/04/09 08:56:04;;;;;;;20.90;13.05;;;22.70;47.90;;;;;;5073181;28;20020;-51
2021/04/09 08:58:43;;;;;;;21.27;11.15;;;22.60;47.90;;;;;;5072900;28;20445;-52
2021/04/09 09:01:11;;;;;;;18.42;12.30;;;22.60;48.00;;;;;;5072731;28;20025;-51
2021/04/09 09:03:37;;;;;;;22.25;12.65;;;22.60;48.00;;;;;;5072918;28;20470;-51
2021/04/09 09:06:05;;;;;;;30.05;13.80;;;22.60;48.00;;;;;;5073292;28;20355;-52
2021/04/09 09:08:43;;;;;;;24.55;14.20;;;22.60;48.10;;;;;;5072607;28;20028;-52
2021/04/09 09:11:11;;;;;;;21.98;12.57;;;22.60;48.10;;;;;;5072602;28;20032;-52
2021/04/09 09:13:42;;;;;;;25.33;12.63;;;22.60;48.10;;;;;;5072884;28;20016;-52
2021/04/09 09:16:18;;;;;;;31.88;19.50;;;22.60;48.20;;;;;;5072932;28;20029;-51
2021/04/09 09:18:48;;;;;;;29.38;19.00;;;22.60;48.20;;;;;;5072707;28;20119;-51
2021/04/09 09:21:14;;;;;;;22.65;15.57;;;22.60;48.20;;;;;;5072617;28;20112;-51
2021/04/09 09:23:59;;;;;;;28.23;16.42;;;22.60;48.20;;;;;;5072890;28;20436;-51
2021/04/09 09:26:37;;;;;;;23.33;13.88;;;22.60;48.20;;;;;;5055043;28;20210;-51
2021/04/09 09:29:23;;;;;;;25.10;11.07;;;22.60;48.30;;;;;;5072623;28;20070;-51
2021/04/09 09:32:06;;;;;;;23.90;8.55;;;22.60;48.30;;;;;;5072504;28;20044;-52
2021/04/09 09:34:40;;;;;;;18.88;8.77;;;22.60;48.30;;;;;;5072727;28;20478;-51
2021/04/09 09:37:34;;;;;;;13.52;7.00;;;22.60;48.40;;;;;;5072803;28;20470;-51
2021/04/09 09:40:05;;;;;;;19.20;5.88;;;22.60;48.50;;;;;;5060673;28;20429;-51
2021/04/09 09:42:34;;;;;;;21.60;5.63;;;22.60;48.40;;;;;;5054404;28;20492;-52
2021/04/09 09:45:05;;;;;;;11.90;5.18;;;22.60;48.40;;;;;;5072494;28;20028;-52
2021/04/09 09:47:34;;;;;;;;;;;22.60;48.50;;;;;;5072477;28;20036;-52
2021/04/09 09:50:03;;;;;;;10.05;4.03;;;22.60;48.40;;;;;;5072351;28;19909;-51
2021/04/09 09:53:00;;;;;;;12.70;4.40;;;22.70;48.30;;;;;;5072145;28;20028;-51
2021/04/09 09:55:46;;;;;;;12.02;4.97;;;22.70;48.40;;;;;;5072525;28;20051;-52
2021/04/09 09:58:26;;;;;;;13.15;4.25;;;22.70;48.30;;;;;;5072288;28;20029;-52
2021/04/09 10:01:00;;;;;;;18.13;3.70;;;22.70;48.30;;;;;;5072386;28;20089;-52
2021/04/09 10:03:30;;;;;;;8.55;2.90;;;22.70;48.20;;;;;;5072306;28;20059;-52
2021/04/09 10:06:13;;;;;;;8.63;3.28;;;22.80;48.20;;;;;;5072141;28;20039;-52
2021/04/09 10:08:41;;;;;;;40.25;28.33;;;22.70;48.00;;;;;;5072212;28;20123;-52
2021/04/09 10:11:14;;;;;;;20.73;13.18;;;22.80;48.00;;;;;;5054581;28;20111;-52
2021/04/09 10:13:44;;;;;;;24.33;13.68;;;22.80;48.00;;;;;;5072085;28;20471;-52
2021/04/09 10:16:21;;;;;;;32.22;13.95;;;22.80;48.00;;;;;;5054300;28;20509;-52
2021/04/09 10:18:56;;;;;;;25.90;13.85;;;22.80;48.00;;;;;;5054265;28;20043;-52
2021/04/09 10:21:32;;;;;;;18.48;11.50;;;22.80;47.90;;;;;;5074423;28;20540;-51
2021/04/09 10:24:13;;;;;;;28.70;11.60;;;22.80;47.80;;;;;;5076184;28;20040;-51
2021/04/09 10:26:52;;;;;;;18.25;10.23;;;22.90;47.80;;;;;;5075917;28;20032;-52
2021/04/09 10:29:25;;;;;;;12.35;7.10;;;22.90;47.80;;;;;;5075665;28;20037;-53
2021/04/09 10:31:52;;;;;;;16.10;8.32;;;22.90;48.20;;;;;;5075747;28;20107;-52
2021/04/09 10:34:23;;;;;;;11.77;5.88;;;23.00;47.70;;;;;;5075522;28;20034;-51
2021/04/09 10:36:50;;;;;;;14.30;6.00;;;23.00;47.60;;;;;;5057674;28;20032;-50
2021/04/09 10:39:18;;;;;;;13.35;6.38;;;23.00;47.60;;;;;;5074890;28;20089;-51
2021/04/09 10:41:49;;;;;;;10.77;5.35;;;23.10;47.60;;;;;;5074882;28;20501;-51
2021/04/09 10:44:21;;;;;;;12.95;6.53;;;23.00;47.50;;;;;;5075390;28;20036;-51
2021/04/09 10:46:52;;;;;;;11.50;6.35;;;23.20;47.50;;;;;;5075588;28;20028;-51
2021/04/09 10:49:27;;;;;;;14.60;6.82;;;23.20;47.50;;;;;;5075336;28;20036;-51
2021/04/09 10:51:55;;;;;;;14.90;6.93;;;23.20;47.40;;;;;;5057447;28;20116;-51
2021/04/09 10:54:29;;;;;;;26.80;8.00;;;23.30;47.50;;;;;;5074885;28;20158;-51
2021/04/09 10:57:05;;;;;;;16.95;6.32;;;23.40;47.40;;;;;;5075289;28;20043;-51
2021/04/09 10:59:34;;;;;;;14.43;6.70;;;23.40;47.40;;;;;;5075167;28;20030;-51
2021/04/09 11:02:01;;;;;;;10.35;5.82;;;23.50;47.50;;;;;;5075306;28;20025;-50
2021/04/09 11:04:29;;;;;;;13.18;6.43;;;23.60;47.50;;;;;;5074896;28;20116;-51
2021/04/09 11:07:00;;;;;;;13.90;5.35;;;23.70;47.40;;;;;;5074648;28;20021;-51
2021/04/09 11:09:45;;;;;;;14.00;4.85;;;23.80;47.30;;;;;;5074719;28;20063;-51
2021/04/09 11:12:28;;;;;;;10.05;4.20;;;23.90;47.10;;;;;;5075210;28;20081;-50
2021/04/09 11:15:06;;;;;;;16.30;3.88;;;24.00;46.90;;;;;;5056631;28;20025;-51
2021/04/09 11:17:32;;;;;;;11.55;4.28;;;24.20;46.60;;;;;;5074926;28;20031;-51
2021/04/09 11:20:00;;;;;;;14.23;4.22;;;24.30;46.60;;;;;;5056688;28;20036;-51
2021/04/09 11:22:28;;;;;;;13.13;4.07;;;24.40;46.40;;;;;;5074664;28;20094;-51
2021/04/09 11:25:06;;;;;;;10.27;3.30;;;24.50;46.20;;;;;;5056690;28;20032;-51
2021/04/09 11:27:34;;;;;;;10.02;3.53;;;24.60;45.90;;;;;;5074432;28;20044;-51
2021/04/09 11:30:09;;;;;;;10.00;3.47;;;24.70;45.80;;;;;;5074296;28;20016;-51
2021/04/09 11:32:45;;;;;;;8.90;3.03;;;24.70;45.40;;;;;;5073822;28;20051;-52
2021/04/09 11:35:13;;;;;;;9.32;2.50;;;24.80;45.30;;;;;;5056711;28;20033;-51
2021/04/09 11:37:44;;;;;;;10.48;3.33;;;24.90;45.30;;;;;;5056521;28;20364;-52
2021/04/09 11:40:11;;;;;;;11.07;4.93;;;24.90;45.00;;;;;;5056261;28;20028;-51
2021/04/09 11:42:37;;;;;;;9.93;4.20;;;24.90;45.10;;;;;;5074321;28;20097;-52
2021/04/09 11:45:12;;;;;;;8.52;3.88;;;24.90;45.00;;;;;;5074072;28;20467;-52
2021/04/09 11:47:40;;;;;;;10.00;3.50;;;24.90;44.70;;;;;;5074229;28;20028;-53
2021/04/09 11:50:21;;;;;;;11.52;3.60;;;24.90;44.80;;;;;;5074091;28;20024;-52
2021/04/09 11:53:10;;;;;;;14.10;3.90;;;24.90;44.80;;;;;;5056429;28;20413;-52
2021/04/09 11:55:38;;;;;;;10.73;3.67;;;24.80;45.00;;;;;;5074006;28;20032;-53
2021/04/09 11:58:19;;;;;;;11.40;3.45;;;24.80;45.00;;;;;;5074206;28;20037;-52
2021/04/09 12:00:59;;;;;;;21.75;5.47;;;24.80;45.10;;;;;;5056048;28;20379;-53
2021/04/09 12:03:43;;;;;;;15.95;3.78;;;24.70;45.40;;;;;;5073984;28;20032;-52
2021/04/09 12:06:14;;;;;;;23.02;4.88;;;24.70;45.40;;;;;;5073433;28;20037;-52
2021/04/09 12:08:41;;;;;;;13.68;3.70;;;24.70;45.50;;;;;;5073843;28;20124;-52
2021/04/09 12:11:08;;;;;;;11.93;3.50;;;24.70;45.60;;;;;;5056022;28;20486;-52
2021/04/09 12:13:36;;;;;;;8.95;3.17;;;24.70;45.70;;;;;;5056192;28;20112;-53
2021/04/09 12:16:03;;;;;;;10.18;4.05;;;24.70;45.70;;;;;;5055704;28;20103;-52
2021/04/09 12:18:29;;;;;;;12.65;4.10;;;24.70;45.80;;;;;;5055889;28;20746;-53
2021/04/09 12:20:55;;;;;;;11.00;3.53;;;24.70;45.80;;;;;;5073594;28;20032;-53
2021/04/09 12:23:20;;;;;;;13.15;4.32;;;24.70;45.90;;;;;;5073593;28;20020;-52
2021/04/09 12:25:46;;;;;;;11.52;3.90;;;24.70;45.90;;;;;;5073555;28;20068;-52
2021/04/09 12:28:12;;;;;;;10.80;3.35;;;24.70;46.00;;;;;;5052076;28;20083;-52
2021/04/09 12:30:38;;;;;;;8.98;2.88;;;24.70;45.90;;;;;;5053266;28;20029;-52
2021/04/09 12:33:05;;;;;;;9.80;2.30;;;24.70;45.90;;;;;;5052935;28;20044;-52
2021/04/09 12:35:31;;;;;;;8.00;2.60;;;24.70;45.90;;;;;;5051740;28;20029;-53
2021/04/09 12:37:57;;;;;;;9.30;3.08;;;24.70;45.90;;;;;;5053072;28;20357;-52
2021/04/09 12:40:23;;;;;;;11.88;2.70;;;24.70;46.50;;;;;;5051857;28;20033;-53
2021/04/09 12:42:49;;;;;;;6.63;2.80;;;24.70;45.80;;;;;;5053248;28;20032;-53
2021/04/09 12:45:16;;;;;;;6.65;2.75;;;24.70;45.80;;;;;;5051976;28;20120;-53
2021/04/09 12:47:42;;;;;;;8.65;3.03;;;24.70;45.80;;;;;;5053010;28;20028;-53
2021/04/09 12:50:09;;;;;;;7.03;2.45;;;24.70;45.80;;;;;;5052933;28;20021;-53
2021/04/09 12:52:35;;;;;;;6.72;2.30;;;24.70;45.80;;;;;;5053158;28;20025;-53